KTOP/TOP METAR and TAF weather

Enter ICAO airport designator
Station Type Date Time Source
KTOP METAR 2019/04/25 11:53 UTC NOAA

KTOP 251153Z 00000KT M1/4SM FG VV001 09/09 A2981 RMK AO2 SLP091 T00940089 10122 20078 53007 $


Station Type Date Time Source
KTOP Decoded METAR 2019/04/25 11:53 UTC NOAA

TOPEKA BILLARD MUNICIPAL AIRPORT, KS, United States (KTOP) 39-04N 95-38W 268M
Apr 25, 2019 - 07:53 AM EDT / 2019.04.25 1153 UTC
Wind: Calm:0
Visibility: less than 1/4 mile(s):1
Sky conditions: obscured
Weather: fog
Temperature: 48.9 F (9.4 C)
Dew Point: 48.0 F (8.9 C)
Relative Humidity: 96%
Pressure (altimeter): 29.81 in. Hg (1009 hPa)
Pressure tendency: 0.02 inches (0.7 hPa) higher than three hours ago
ob: KTOP 251153Z 00000KT M1/4SM FG VV001 09/09 A2981 RMK AO2 SLP091 T00940089 10122 20078 53007
cycle: 12

Station Type Date Time Source
KTOP TAF 2019/04/25 12:27 UTC NOAA

TAF KTOP 251125Z 2512/2612 VRB03KT 1/4SM FG VV003
TEMPO 2512/2513 1SM BR FEW200
FM251330 25003KT P6SM SCT100
FM251700 33012G19KT P6SM BKN120
FM252000 34019G27KT P6SM BKN045
FM260100 35005KT P6SM SKC

Example: see airport list